logo
Search for airport 
image banner adimage banner adimage banner ad
image banner ad

CER9 - Fort Nelson (Parker Lake)

Located in , Canada

ICAO - CER9, IATA -

Data provided by Airmate  

General information

Coordinates: N58°50'0" W122°54'0"
Elevation is 1255 feet MSL.
Magnetic variation is 20.0017° East
View others Airports in British Columbia

Operational data

Special qualification required
Current time UTC:
Current local time:
Weather at : CYYE - Fort Nelson ( 17 km )
METAR: CYYE 171300Z 00000KT 2SM FU VV013 15/11 A2990 RMK FU8 SLP128 DENSITY ALT 1600FT
TAF: TAF CYYE 171240Z 1713/1801 VRB03KT 2SM FU VV025 TEMPO 1714/1718 3/4SM FU VV010 BECMG 1718/1720 4SM FU VV030 FM172000 12004KT 4SM FU VV030 BECMG 1720/1722 6SM FU SCT240 FM172200 17008KT 6SM FU SCT200 BECMG 1723/1801 18012KT P6SM NSW RMK NXT FCST BY 171900Z
View NOTAMs / SUP AIP / TFR affecting this airport [VIEW]
Communications frequencies: [VIEW]

Runways:

RWY identifierQFULength (ft)Width (ft)SurfaceLDA (ft)
W00WATER

Airport contact information

Address: Canada

Satellite view of CER9